Time;durP1;ratioP1;P1;durP2;ratioP2;P2;SDS_P1;SDS_P2;PMS_P1;PMS_P2;Temp;Humidity;BMP_temperature;BMP_pressure;BME280_temperature;BME280_humidity;BME280_pressure;Samples;Min_cycle;Max_cycle;Signal;HPM_P1;HPM_P2
2021/11/22 00:00:55;;;;;;;35.50;21.50;;;6.10;99.90;;;;;;5089897;28;20457;-87
2021/11/22 00:03:22;;;;;;;33.50;20.53;;;6.10;99.90;;;;;;5078591;28;20529;-87
2021/11/22 00:05:48;;;;;;;27.57;20.93;;;6.10;99.90;;;;;;5065872;28;20533;-87
2021/11/22 00:08:15;;;;;;;27.07;18.73;;;6.20;99.90;;;;;;5064412;28;20959;-87
2021/11/22 00:10:42;;;;;;;30.03;19.60;;;6.30;99.90;;;;;;5064861;28;20467;-86
2021/11/22 00:13:10;;;;;;;28.30;19.80;;;6.30;99.90;;;;;;5061967;28;20799;-86
2021/11/22 00:15:37;;;;;;;31.13;19.43;;;6.30;99.90;;;;;;5064322;28;20490;-86
2021/11/22 00:18:04;;;;;;;30.03;19.10;;;6.40;99.90;;;;;;5064824;28;20446;-89
2021/11/22 00:20:30;;;;;;;37.73;22.57;;;6.40;99.90;;;;;;5065199;28;20471;-87
2021/11/22 00:22:57;;;;;;;34.47;20.80;;;6.40;99.90;;;;;;5066708;28;20530;-87
2021/11/22 00:25:24;;;;;;;35.50;22.87;;;6.40;99.90;;;;;;5062758;28;20460;-87
2021/11/22 00:27:51;;;;;;;35.70;21.80;;;6.40;99.90;;;;;;5060779;28;20456;-87
2021/11/22 00:30:22;;;;;;;27.80;20.20;;;6.40;99.90;;;;;;5078814;28;20500;-87
2021/11/22 00:32:49;;;;;;;31.90;21.00;;;6.40;99.90;;;;;;5064851;28;20449;-87
2021/11/22 00:35:16;;;;;;;34.70;23.77;;;6.30;99.90;;;;;;5064542;28;20463;-87
2021/11/22 00:37:44;;;;;;;31.87;19.50;;;6.30;99.90;;;;;;5066587;28;20475;-87
2021/11/22 00:40:13;;;;;;;32.43;20.80;;;6.40;99.90;;;;;;5067263;28;20510;-87
2021/11/22 00:42:43;;;;;;;31.10;21.77;;;6.40;99.90;;;;;;5073317;28;20447;-87
2021/11/22 00:45:10;;;;;;;33.93;21.00;;;6.40;99.90;;;;;;5067756;28;20463;-87
2021/11/22 00:47:38;;;;;;;33.53;21.63;;;6.40;99.90;;;;;;5063621;28;20448;-87
2021/11/22 00:50:05;;;;;;;34.43;22.23;;;6.30;99.90;;;;;;5065540;28;20925;-87
2021/11/22 00:52:32;;;;;;;28.97;20.40;;;6.40;99.90;;;;;;5069716;28;20948;-87
2021/11/22 00:54:58;;;;;;;30.77;20.60;;;6.30;99.90;;;;;;5064110;28;20464;-87
2021/11/22 00:57:26;;;;;;;35.33;21.80;;;6.30;99.90;;;;;;5061145;28;20448;-87
2021/11/22 00:59:52;;;;;;;30.00;20.63;;;6.40;99.90;;;;;;5063024;28;20480;-87
2021/11/22 01:02:20;;;;;;;31.93;20.63;;;6.40;99.90;;;;;;5066759;28;20448;-87
2021/11/22 01:04:48;;;;;;;35.37;20.73;;;6.40;99.90;;;;;;5076035;28;20470;-87
2021/11/22 01:07:15;;;;;;;32.70;21.60;;;6.40;99.90;;;;;;5070465;28;20427;-87
2021/11/22 01:09:42;;;;;;;33.40;21.37;;;6.50;99.90;;;;;;5071800;28;20440;-87
2021/11/22 01:12:10;;;;;;;32.00;22.60;;;6.40;99.90;;;;;;5063669;28;20526;-87
2021/11/22 01:14:37;;;;;;;36.50;22.60;;;6.40;99.90;;;;;;5064327;28;20436;-87
2021/11/22 01:17:03;;;;;;;36.47;20.57;;;6.40;99.90;;;;;;5069056;28;20460;-86
2021/11/22 01:19:30;;;;;;;35.87;23.33;;;6.40;99.90;;;;;;5062719;28;20471;-87
2021/11/22 01:21:59;;;;;;;29.10;20.13;;;6.40;99.90;;;;;;5063828;28;20431;-87
2021/11/22 01:24:26;;;;;;;35.90;22.63;;;6.40;99.90;;;;;;5066632;28;20437;-87
2021/11/22 01:26:52;;;;;;;41.60;25.83;;;6.40;99.90;;;;;;5061892;28;20448;-86
2021/11/22 01:29:19;;;;;;;40.83;23.60;;;6.40;99.90;;;;;;5069388;28;20412;-86
2021/11/22 01:31:46;;;;;;;35.50;22.63;;;6.40;99.90;;;;;;5084646;28;20440;-86
2021/11/22 01:34:12;;;;;;;35.83;21.37;;;6.40;99.90;;;;;;5085433;28;20448;-87
2021/11/22 01:36:39;;;;;;;39.23;23.50;;;6.30;99.90;;;;;;5079282;28;20820;-87
2021/11/22 01:39:07;;;;;;;39.90;23.10;;;6.30;99.90;;;;;;5062858;28;20447;-87
2021/11/22 01:41:34;;;;;;;41.57;23.63;;;6.40;99.90;;;;;;5062262;28;20447;-87
2021/11/22 01:44:01;;;;;;;37.43;25.03;;;6.40;99.90;;;;;;5063936;28;20538;-87
2021/11/22 01:46:27;;;;;;;32.53;22.00;;;6.50;99.90;;;;;;5063117;28;20464;-87
2021/11/22 01:48:56;;;;;;;40.03;24.23;;;6.50;99.90;;;;;;5062159;28;20482;-87
2021/11/22 01:51:23;;;;;;;31.07;22.03;;;6.50;99.90;;;;;;5063457;28;20439;-87
2021/11/22 01:53:50;;;;;;;35.87;24.70;;;6.50;99.90;;;;;;5062877;28;20482;-87
2021/11/22 01:56:19;;;;;;;33.60;22.03;;;6.50;99.90;;;;;;5063776;28;20819;-87
2021/11/22 01:58:46;;;;;;;34.13;21.57;;;6.50;99.90;;;;;;5063706;28;20494;-87
2021/11/22 02:01:12;;;;;;;37.20;23.50;;;6.50;99.90;;;;;;5062947;28;20476;-87
2021/11/22 02:03:39;;;;;;;34.80;24.03;;;6.50;99.90;;;;;;5071797;28;20447;-87
2021/11/22 02:06:06;;;;;;;36.90;22.20;;;6.50;99.90;;;;;;5072604;28;20460;-87
2021/11/22 02:08:33;;;;;;;43.03;24.80;;;6.50;99.90;;;;;;5062950;28;20822;-87
2021/11/22 02:11:00;;;;;;;37.03;22.00;;;6.50;99.90;;;;;;5064810;28;20443;-87
2021/11/22 02:13:29;;;;;;;46.13;25.43;;;6.50;99.90;;;;;;5067539;28;20444;-88
2021/11/22 02:15:56;;;;;;;36.53;21.87;;;6.50;99.90;;;;;;5065858;28;20459;-87
2021/11/22 02:18:22;;;;;;;40.73;25.73;;;6.50;99.90;;;;;;5067144;28;20831;-87
2021/11/22 02:20:52;;;;;;;39.23;23.47;;;6.50;99.90;;;;;;5072701;28;20467;-87
2021/11/22 02:23:19;;;;;;;33.73;22.30;;;6.50;99.90;;;;;;5074197;28;20444;-88
2021/11/22 02:25:45;;;;;;;29.73;20.87;;;6.50;99.90;;;;;;5066833;28;21056;-87
2021/11/22 02:28:14;;;;;;;36.23;22.87;;;6.40;99.90;;;;;;5066533;28;20448;-87
2021/11/22 02:30:43;;;;;;;34.20;22.90;;;6.50;99.90;;;;;;5060805;28;20439;-87
2021/11/22 02:33:14;;;;;;;30.90;22.70;;;6.50;99.90;;;;;;5066250;28;20448;-87
2021/11/22 02:35:43;;;;;;;34.73;22.93;;;6.40;99.90;;;;;;5083720;28;20464;-86
2021/11/22 02:38:11;;;;;;;34.50;24.83;;;6.40;99.90;;;;;;5083620;28;20448;-87
2021/11/22 02:40:38;;;;;;;37.47;23.37;;;6.40;99.90;;;;;;5081940;28;20482;-87
2021/11/22 02:43:05;;;;;;;35.97;23.70;;;6.40;99.90;;;;;;5067679;28;20471;-87
2021/11/22 02:45:32;;;;;;;35.43;24.33;;;6.40;99.90;;;;;;5066954;28;20479;-87
2021/11/22 02:47:58;;;;;;;34.73;21.70;;;6.40;99.90;;;;;;5066635;28;20437;-87
2021/11/22 02:50:25;;;;;;;33.13;23.73;;;6.30;99.90;;;;;;5063715;28;20448;-87
2021/11/22 02:52:52;;;;;;;35.13;22.37;;;6.30;99.90;;;;;;5066779;28;20498;-87
2021/11/22 02:55:21;;;;;;;30.80;21.50;;;6.40;99.90;;;;;;5065961;28;20470;-87
2021/11/22 02:57:48;;;;;;;40.87;23.47;;;6.40;99.90;;;;;;5065520;28;20929;-87
2021/11/22 03:00:18;;;;;;;41.10;23.70;;;6.50;99.90;;;;;;5065034;28;20475;-87
2021/11/22 03:02:45;;;;;;;42.73;23.10;;;6.40;99.90;;;;;;5083098;28;20438;-86
2021/11/22 03:05:12;;;;;;;34.03;21.40;;;6.50;99.90;;;;;;5084883;28;20436;-87
2021/11/22 03:07:39;;;;;;;33.67;23.67;;;6.40;99.90;;;;;;5081009;28;20440;-87
2021/11/22 03:10:10;;;;;;;42.47;23.10;;;6.40;99.90;;;;;;5067869;28;20428;-86
2021/11/22 03:12:38;;;;;;;38.30;24.70;;;6.40;99.90;;;;;;5065766;28;20451;-87
2021/11/22 03:15:09;;;;;;;40.13;24.67;;;6.40;99.90;;;;;;5071241;28;20475;-87
2021/11/22 03:17:35;;;;;;;34.10;22.67;;;6.40;99.90;;;;;;5065782;28;20458;-87
2021/11/22 03:20:02;;;;;;;36.37;24.43;;;6.30;99.90;;;;;;5066059;28;21011;-87
2021/11/22 03:22:29;;;;;;;35.07;23.40;;;6.30;99.90;;;;;;5072457;28;20440;-88
2021/11/22 03:24:56;;;;;;;37.03;22.03;;;6.30;99.90;;;;;;5075188;28;20930;-87
2021/11/22 03:27:23;;;;;;;36.33;24.10;;;6.30;99.90;;;;;;5077153;28;20440;-87
2021/11/22 03:29:51;;;;;;;36.37;24.50;;;6.30;99.90;;;;;;5075274;28;20455;-87
2021/11/22 03:32:18;;;;;;;35.97;22.17;;;6.30;99.90;;;;;;5067398;28;20426;-87
2021/11/22 03:34:45;;;;;;;40.77;24.33;;;6.30;99.90;;;;;;5067604;28;20846;-86
2021/11/22 03:37:12;;;;;;;39.13;23.17;;;6.30;99.90;;;;;;5067512;28;20444;-85
2021/11/22 03:39:39;;;;;;;38.37;26.37;;;6.30;99.90;;;;;;5081845;28;20443;-86
2021/11/22 03:42:08;;;;;;;42.23;26.30;;;6.30;99.90;;;;;;5067111;28;20445;-87
2021/11/22 03:44:35;;;;;;;35.30;24.20;;;6.30;99.90;;;;;;5067026;28;20455;-87
2021/11/22 03:47:04;;;;;;;39.10;24.63;;;6.30;99.90;;;;;;5071670;28;20432;-86
2021/11/22 03:49:33;;;;;;;38.03;25.00;;;6.30;99.90;;;;;;5069701;28;20444;-86
2021/11/22 03:52:01;;;;;;;38.40;23.00;;;6.30;99.90;;;;;;5065336;28;20463;-87
2021/11/22 03:54:28;;;;;;;37.53;23.70;;;6.30;99.90;;;;;;5065442;28;20859;-87
2021/11/22 03:56:54;;;;;;;40.53;24.50;;;6.30;99.90;;;;;;5064216;28;20450;-86
2021/11/22 03:59:21;;;;;;;38.03;24.93;;;6.30;99.90;;;;;;5065369;28;20800;-87
2021/11/22 04:01:48;;;;;;;35.80;22.00;;;6.30;99.90;;;;;;5066986;28;20476;-87
2021/11/22 04:04:16;;;;;;;39.03;24.40;;;6.30;99.90;;;;;;5067355;28;20441;-87
2021/11/22 04:06:43;;;;;;;32.13;24.17;;;6.30;99.90;;;;;;5064824;28;20491;-87
2021/11/22 04:09:09;;;;;;;43.47;26.93;;;6.30;99.90;;;;;;5081123;28;20416;-86
2021/11/22 04:11:36;;;;;;;42.60;25.33;;;6.30;99.90;;;;;;5085657;28;20439;-87
2021/11/22 04:14:03;;;;;;;35.00;24.53;;;6.30;99.90;;;;;;5067973;28;20447;-86
2021/11/22 04:16:31;;;;;;;35.90;23.20;;;6.30;99.90;;;;;;5066393;28;20469;-86
2021/11/22 04:18:57;;;;;;;32.90;24.80;;;6.30;99.90;;;;;;5066460;28;20432;-87
2021/11/22 04:21:26;;;;;;;36.80;24.93;;;6.30;99.90;;;;;;5067547;28;20472;-87
2021/11/22 04:23:54;;;;;;;34.57;25.60;;;6.30;99.90;;;;;;5066672;28;20432;-87
2021/11/22 04:26:21;;;;;;;41.93;25.20;;;6.30;99.90;;;;;;5067977;28;21006;-87
2021/11/22 04:28:48;;;;;;;37.47;23.97;;;6.30;99.90;;;;;;5068435;28;20907;-86
2021/11/22 04:31:15;;;;;;;33.30;23.30;;;6.30;99.90;;;;;;5066421;28;20485;-86
2021/11/22 04:33:42;;;;;;;33.93;23.57;;;6.30;99.90;;;;;;5071539;28;20425;-86
2021/11/22 04:36:10;;;;;;;37.40;23.23;;;6.30;99.90;;;;;;5086337;28;20460;-86
2021/11/22 04:38:39;;;;;;;35.60;23.23;;;6.30;99.90;;;;;;5079424;28;20443;-87
2021/11/22 04:41:06;;;;;;;38.37;25.53;;;6.30;99.90;;;;;;5080878;28;20490;-87
2021/11/22 04:43:33;;;;;;;33.43;24.13;;;6.30;99.90;;;;;;5066658;28;20544;-87
2021/11/22 04:45:59;;;;;;;37.97;23.83;;;6.20;99.90;;;;;;5065557;28;20486;-87
2021/11/22 04:48:26;;;;;;;36.80;24.70;;;6.20;99.90;;;;;;5062769;28;20444;-87
2021/11/22 04:50:53;;;;;;;36.23;26.07;;;6.30;99.90;;;;;;5062999;28;20503;-87
2021/11/22 04:53:20;;;;;;;30.37;23.57;;;6.30;99.90;;;;;;5066256;28;20567;-87
2021/11/22 04:55:48;;;;;;;36.40;23.00;;;6.30;99.90;;;;;;5063184;28;20463;-87
2021/11/22 04:58:15;;;;;;;33.93;21.87;;;6.30;99.90;;;;;;5065437;28;20845;-88
2021/11/22 05:00:41;;;;;;;33.37;23.13;;;6.30;99.90;;;;;;5063913;28;20480;-86
2021/11/22 05:03:08;;;;;;;33.20;22.70;;;6.30;99.90;;;;;;5065812;28;20935;-88
2021/11/22 05:05:35;;;;;;;35.10;21.60;;;6.30;99.90;;;;;;5064761;28;20754;-87
2021/11/22 05:08:06;;;;;;;32.43;20.93;;;6.30;99.90;;;;;;5064840;28;20455;-87
2021/11/22 05:10:36;;;;;;;33.77;22.63;;;6.30;99.90;;;;;;5063865;28;20471;-88
2021/11/22 05:13:05;;;;;;;31.83;21.03;;;6.30;99.90;;;;;;5064510;28;20476;-88
2021/11/22 05:15:32;;;;;;;34.93;21.87;;;6.30;99.90;;;;;;5063495;28;20464;-87
2021/11/22 05:17:59;;;;;;;35.27;22.07;;;6.30;99.90;;;;;;5062955;28;20450;-87
2021/11/22 05:20:28;;;;;;;36.90;23.67;;;6.30;99.90;;;;;;5062861;28;20448;-87
2021/11/22 05:22:54;;;;;;;34.70;22.93;;;6.30;99.90;;;;;;5077292;28;20457;-86
2021/11/22 05:25:21;;;;;;;38.90;24.10;;;6.30;99.90;;;;;;5071122;28;20964;-87
2021/11/22 05:27:48;;;;;;;32.43;22.53;;;6.30;99.90;;;;;;5062702;28;20506;-87
2021/11/22 05:30:16;;;;;;;36.13;23.40;;;6.30;99.90;;;;;;5064669;28;20855;-87
2021/11/22 05:32:43;;;;;;;33.67;22.40;;;6.30;99.90;;;;;;5061468;28;20440;-87
2021/11/22 05:35:09;;;;;;;31.43;22.80;;;6.30;99.90;;;;;;5063614;28;20509;-87
2021/11/22 05:37:36;;;;;;;33.13;21.47;;;6.30;99.90;;;;;;5062228;28;20455;-87
2021/11/22 05:40:04;;;;;;;32.23;22.17;;;6.30;99.90;;;;;;5064139;28;20924;-87
2021/11/22 05:42:31;;;;;;;32.30;21.43;;;6.30;99.90;;;;;;5068136;28;20482;-87
2021/11/22 05:47:30;;;;;;;29.67;21.37;;;6.30;99.90;;;;;;5061271;28;20864;-86
2021/11/22 05:50:03;;;;;;;29.50;20.60;;;6.30;99.90;;;;;;5058698;28;20435;-86
2021/11/22 05:52:31;;;;;;;31.10;21.50;;;6.30;99.90;;;;;;5065006;28;20444;-86
2021/11/22 05:54:58;;;;;;;27.70;19.27;;;6.40;99.90;;;;;;5063763;28;20448;-86
2021/11/22 05:57:25;;;;;;;28.57;19.57;;;6.40;99.90;;;;;;5045179;28;20487;-87
2021/11/22 05:59:52;;;;;;;26.80;18.70;;;6.40;99.90;;;;;;5055568;28;20441;-86
2021/11/22 06:02:19;;;;;;;29.67;20.00;;;6.30;99.90;;;;;;5062382;28;20474;-86
2021/11/22 06:04:47;;;;;;;27.17;19.10;;;6.30;99.90;;;;;;5059587;28;20449;-85
2021/11/22 06:07:14;;;;;;;26.30;18.77;;;6.30;99.90;;;;;;5057698;28;20464;-85
2021/11/22 06:09:41;;;;;;;25.43;18.60;;;6.30;99.90;;;;;;5060512;28;20434;-85
2021/11/22 06:12:08;;;;;;;25.33;18.03;;;6.30;99.90;;;;;;5042831;28;20449;-87
2021/11/22 06:14:35;;;;;;;30.87;19.87;;;6.30;99.90;;;;;;5042959;28;20450;-87
2021/11/22 06:17:01;;;;;;;26.27;17.87;;;6.40;99.90;;;;;;5046356;28;20471;-87
2021/11/22 06:19:28;;;;;;;27.13;18.53;;;6.30;99.90;;;;;;5066545;28;20440;-86
2021/11/22 06:21:56;;;;;;;25.10;17.73;;;6.40;99.90;;;;;;5068967;28;20471;-85
2021/11/22 06:24:24;;;;;;;24.00;17.10;;;6.40;99.90;;;;;;5049842;28;20442;-86
2021/11/22 06:26:53;;;;;;;24.40;17.83;;;6.30;99.90;;;;;;5044888;28;20536;-86
2021/11/22 06:29:21;;;;;;;26.53;18.10;;;6.30;99.90;;;;;;5044924;28;20524;-85
2021/11/22 06:31:48;;;;;;;26.13;17.80;;;6.30;99.90;;;;;;5043306;28;20805;-86
2021/11/22 06:34:15;;;;;;;23.23;16.20;;;6.30;99.90;;;;;;5046324;28;20437;-86
2021/11/22 06:36:42;;;;;;;24.17;18.00;;;6.30;99.90;;;;;;5044302;28;20553;-86
2021/11/22 06:39:10;;;;;;;24.77;16.90;;;6.40;99.90;;;;;;5042048;28;20443;-86
2021/11/22 06:41:37;;;;;;;23.30;16.90;;;6.40;99.90;;;;;;5060335;28;20452;-85
2021/11/22 06:44:04;;;;;;;19.30;15.70;;;6.40;99.90;;;;;;5061879;28;20441;-86
2021/11/22 06:46:31;;;;;;;23.97;16.80;;;6.40;99.90;;;;;;5051890;28;20476;-87
2021/11/22 06:48:59;;;;;;;20.40;14.80;;;6.40;99.90;;;;;;5059823;28;20516;-86
2021/11/22 06:51:26;;;;;;;23.20;16.47;;;6.40;99.90;;;;;;5054368;28;20452;-85
2021/11/22 06:53:52;;;;;;;23.43;15.20;;;6.40;99.90;;;;;;5055864;28;20452;-86
2021/11/22 06:56:21;;;;;;;24.40;15.90;;;6.40;99.90;;;;;;5044791;28;20471;-86
2021/11/22 06:58:48;;;;;;;19.93;15.20;;;6.40;99.90;;;;;;5060714;28;20508;-86
2021/11/22 07:01:15;;;;;;;22.47;16.13;;;6.40;99.90;;;;;;5067615;28;20460;-86
2021/11/22 07:03:42;;;;;;;20.40;15.87;;;6.40;99.90;;;;;;5054461;28;20964;-86
2021/11/22 07:06:09;;;;;;;19.33;15.70;;;6.40;99.90;;;;;;5048961;28;20459;-86
2021/11/22 07:08:36;;;;;;;21.40;15.27;;;6.40;99.90;;;;;;5047947;28;20862;-86
2021/11/22 07:11:03;;;;;;;19.07;14.07;;;6.40;99.90;;;;;;5046331;28;20437;-86
2021/11/22 07:13:33;;;;;;;18.67;13.93;;;6.40;99.90;;;;;;5044741;28;20437;-86
2021/11/22 07:16:00;;;;;;;15.50;13.43;;;6.50;99.90;;;;;;5045230;28;20553;-86
2021/11/22 07:18:27;;;;;;;14.73;12.00;;;6.50;99.90;;;;;;5045161;28;20811;-86
2021/11/22 07:20:54;;;;;;;15.53;12.57;;;6.50;99.90;;;;;;5044488;28;21099;-86
2021/11/22 07:23:23;;;;;;;14.87;12.17;;;6.50;99.90;;;;;;5046195;28;20462;-86
2021/11/22 07:25:50;;;;;;;19.53;13.17;;;6.50;99.90;;;;;;5048636;28;20533;-87
2021/11/22 07:28:17;;;;;;;16.57;12.60;;;6.60;99.90;;;;;;5046469;28;20767;-86
2021/11/22 07:30:45;;;;;;;14.00;11.10;;;6.60;99.90;;;;;;5056225;28;20468;-86
2021/11/22 07:33:12;;;;;;;13.03;11.40;;;6.60;99.90;;;;;;5057739;28;20456;-86
2021/11/22 07:35:39;;;;;;;14.20;11.77;;;6.60;99.90;;;;;;5046976;28;20832;-86
2021/11/22 07:38:07;;;;;;;15.63;12.37;;;6.60;99.90;;;;;;5045822;28;20442;-86
2021/11/22 07:40:34;;;;;;;14.50;12.50;;;6.70;99.90;;;;;;5047019;28;20874;-86
2021/11/22 07:43:01;;;;;;;14.13;10.63;;;6.70;99.90;;;;;;5054174;28;20734;-86
2021/11/22 07:45:27;;;;;;;14.53;11.90;;;6.70;99.90;;;;;;5058674;28;20975;-86
2021/11/22 07:47:56;;;;;;;13.90;11.00;;;6.70;99.90;;;;;;5068696;28;20437;-85
2021/11/22 07:50:26;;;;;;;13.67;10.77;;;6.80;99.90;;;;;;5054615;28;20524;-85
2021/11/22 07:52:53;;;;;;;15.27;12.13;;;6.80;99.90;;;;;;5050068;28;20445;-85
2021/11/22 07:55:22;;;;;;;13.10;10.60;;;6.80;99.90;;;;;;5060000;28;20449;-86
2021/11/22 07:57:49;;;;;;;14.60;12.57;;;6.80;99.90;;;;;;5057661;28;20470;-85
2021/11/22 08:00:17;;;;;;;13.97;11.67;;;6.80;99.90;;;;;;5053178;28;20448;-85
2021/11/22 08:02:43;;;;;;;15.43;11.97;;;6.80;99.90;;;;;;5054543;28;20481;-86
2021/11/22 08:05:12;;;;;;;15.33;12.03;;;6.90;99.90;;;;;;5064534;28;20454;-86
2021/11/22 08:07:41;;;;;;;14.23;11.20;;;6.90;99.90;;;;;;5057595;28;20448;-86
2021/11/22 08:10:23;;;;;;;16.30;12.83;;;7.00;99.90;;;;;;5059950;28;20456;-86
2021/11/22 08:12:51;;;;;;;13.50;11.60;;;7.00;99.90;;;;;;5062373;28;20520;-86
2021/11/22 08:15:19;;;;;;;15.07;11.43;;;7.00;99.90;;;;;;5053142;28;20448;-84
2021/11/22 08:17:46;;;;;;;14.10;11.80;;;7.10;99.90;;;;;;5047939;28;20467;-85
2021/11/22 08:20:16;;;;;;;14.23;11.53;;;7.00;99.90;;;;;;5049377;28;20460;-85
2021/11/22 08:22:44;;;;;;;16.00;11.67;;;7.00;99.90;;;;;;5047128;28;20476;-85
2021/11/22 08:25:12;;;;;;;14.10;12.30;;;7.00;99.90;;;;;;5045063;28;20536;-85
2021/11/22 08:27:39;;;;;;;14.20;11.40;;;7.00;99.90;;;;;;5047338;28;20447;-85
2021/11/22 08:30:08;;;;;;;15.80;12.67;;;7.00;99.90;;;;;;5053577;28;20445;-85
2021/11/22 08:32:36;;;;;;;22.23;12.40;;;7.10;99.90;;;;;;5049783;28;20452;-85
2021/11/22 08:35:04;;;;;;;15.90;12.10;;;7.10;99.90;;;;;;5044450;28;20440;-85
2021/11/22 08:37:33;;;;;;;14.13;12.63;;;7.10;99.90;;;;;;5046114;28;20450;-85
2021/11/22 08:40:00;;;;;;;17.03;14.37;;;7.10;99.90;;;;;;5057182;28;20531;-85
2021/11/22 08:42:27;;;;;;;18.00;13.43;;;7.10;99.90;;;;;;5051163;28;20588;-86
2021/11/22 08:44:54;;;;;;;18.87;13.20;;;7.10;99.90;;;;;;5043870;28;20993;-85
2021/11/22 08:47:21;;;;;;;16.00;13.17;;;7.20;99.90;;;;;;5050331;28;20537;-85
2021/11/22 08:49:48;;;;;;;14.60;11.70;;;7.20;99.90;;;;;;5067105;28;20432;-85
2021/11/22 08:52:15;;;;;;;15.27;12.07;;;7.20;99.90;;;;;;5055155;28;20433;-85
2021/11/22 08:54:43;;;;;;;15.57;11.93;;;7.20;99.90;;;;;;5058961;28;20448;-85
2021/11/22 08:57:10;;;;;;;18.03;11.90;;;7.20;99.90;;;;;;5044478;28;20843;-86
2021/11/22 08:59:38;;;;;;;15.17;11.73;;;7.20;99.90;;;;;;5046186;28;20437;-85
2021/11/22 09:02:05;;;;;;;16.27;12.77;;;7.30;99.90;;;;;;5048842;28;20571;-85
2021/11/22 09:04:32;;;;;;;16.60;12.40;;;7.30;99.90;;;;;;5050084;28;20457;-85
2021/11/22 09:06:59;;;;;;;14.43;12.50;;;7.30;99.90;;;;;;5060768;28;20452;-85
2021/11/22 09:09:26;;;;;;;15.50;11.90;;;7.40;99.90;;;;;;5053679;28;20972;-86
2021/11/22 09:11:54;;;;;;;16.60;12.67;;;7.40;99.90;;;;;;5060002;28;20515;-86
2021/11/22 09:14:21;;;;;;;12.50;10.93;;;7.40;99.90;;;;;;5050023;28;20452;-86
2021/11/22 09:16:48;;;;;;;15.30;11.73;;;7.40;99.90;;;;;;5050187;28;20468;-86
2021/11/22 09:19:16;;;;;;;16.67;11.30;;;7.30;99.90;;;;;;5046441;28;20445;-86
2021/11/22 09:21:43;;;;;;;14.77;12.37;;;7.40;99.90;;;;;;5046627;28;20504;-86
2021/11/22 09:24:10;;;;;;;13.67;12.17;;;7.40;99.90;;;;;;5050160;28;20845;-86
2021/11/22 09:26:36;;;;;;;13.30;11.57;;;7.40;99.90;;;;;;5043442;28;20453;-86
2021/11/22 09:29:05;;;;;;;14.90;12.73;;;7.40;99.90;;;;;;5043248;28;20460;-86
2021/11/22 09:31:32;;;;;;;13.63;11.17;;;7.40;99.90;;;;;;5042274;28;20444;-85
2021/11/22 09:33:59;;;;;;;13.53;11.50;;;7.40;99.90;;;;;;5041320;28;20433;-84
2021/11/22 09:36:27;;;;;;;21.33;13.70;;;7.40;99.90;;;;;;5043747;28;20461;-85
2021/11/22 09:38:54;;;;;;;14.30;11.53;;;7.50;99.90;;;;;;5042536;28;20444;-85
2021/11/22 09:41:26;;;;;;;16.60;12.90;;;7.60;99.90;;;;;;5042526;28;20444;-87
2021/11/22 09:43:53;;;;;;;16.73;12.57;;;7.60;99.90;;;;;;5043028;28;20426;-87
2021/11/22 09:46:22;;;;;;;15.40;12.30;;;7.60;99.90;;;;;;5037746;28;20877;-87
2021/11/22 09:48:48;;;;;;;15.23;12.97;;;7.70;99.90;;;;;;5042278;28;20440;-84
2021/11/22 09:51:15;;;;;;;14.27;11.90;;;7.80;99.90;;;;;;5042020;28;20446;-85
2021/11/22 09:53:42;;;;;;;16.00;11.90;;;7.80;99.90;;;;;;5040551;28;20453;-86
2021/11/22 09:56:12;;;;;;;14.03;11.70;;;7.90;99.90;;;;;;5050223;28;20465;-87
2021/11/22 09:58:39;;;;;;;14.20;12.67;;;7.90;99.90;;;;;;5055515;28;20447;-86
2021/11/22 10:01:10;;;;;;;13.33;11.50;;;7.90;99.90;;;;;;5076272;28;20450;-86
2021/11/22 10:03:38;;;;;;;14.20;11.17;;;7.90;99.90;;;;;;5071494;28;20469;-86
2021/11/22 10:06:05;;;;;;;13.97;11.60;;;8.00;99.90;;;;;;5057658;28;20469;-86
2021/11/22 10:08:39;;;;;;;15.60;11.23;;;8.00;99.90;;;;;;5067060;28;20441;-86
2021/11/22 10:11:08;;;;;;;12.60;11.33;;;8.00;99.90;;;;;;5049022;28;20455;-87
2021/11/22 10:13:37;;;;;;;15.17;13.57;;;8.20;99.90;;;;;;5049511;28;20437;-88
2021/11/22 10:16:24;;;;;;;12.33;11.13;;;8.20;99.90;;;;;;5047917;28;20492;-80
2021/11/22 10:18:54;;;;;;;17.37;11.63;;;8.30;99.90;;;;;;5041501;28;20445;-80
2021/11/22 10:21:23;;;;;;;16.63;12.17;;;8.20;99.90;;;;;;5042662;28;20437;-80
2021/11/22 10:23:52;;;;;;;13.33;10.90;;;8.30;99.90;;;;;;5044969;28;20866;-79
2021/11/22 10:26:19;;;;;;;15.50;10.90;;;8.30;99.90;;;;;;5045338;28;20453;-86
2021/11/22 10:28:48;;;;;;;15.07;10.73;;;8.50;99.90;;;;;;5046930;28;20440;-85
2021/11/22 10:31:16;;;;;;;13.93;11.77;;;8.50;99.90;;;;;;5041496;28;20977;-84
2021/11/22 10:33:46;;;;;;;15.80;11.87;;;8.60;99.90;;;;;;5047168;28;20456;-86
2021/11/22 10:36:16;;;;;;;14.40;11.40;;;8.50;99.90;;;;;;5058315;28;20457;-86
2021/11/22 10:38:46;;;;;;;13.37;11.97;;;8.50;99.90;;;;;;5038986;28;20524;-86
2021/11/22 10:41:15;;;;;;;12.83;10.50;;;8.60;99.90;;;;;;5039741;28;20458;-86
2021/11/22 10:43:49;;;;;;;12.90;11.17;;;8.60;99.90;;;;;;5044720;28;20480;-86
2021/11/22 10:46:17;;;;;;;13.47;10.60;;;8.60;99.90;;;;;;5037520;28;20476;-86
2021/11/22 10:48:49;;;;;;;15.07;11.23;;;8.60;99.90;;;;;;5036221;28;20455;-86
2021/11/22 10:51:22;;;;;;;12.37;11.07;;;8.60;99.90;;;;;;5037400;28;20907;-86
2021/11/22 10:53:50;;;;;;;13.83;10.07;;;8.60;99.90;;;;;;5036750;28;20503;-86
2021/11/22 10:56:19;;;;;;;16.07;11.40;;;8.60;99.90;;;;;;5037344;28;20465;-87
2021/11/22 10:58:58;;;;;;;17.97;13.63;;;8.60;99.90;;;;;;5049160;28;20426;-86
2021/11/22 11:01:37;;;;;;;13.60;11.30;;;8.50;99.90;;;;;;5042032;28;20448;-86
2021/11/22 11:04:13;;;;;;;17.23;13.00;;;8.50;99.90;;;;;;5054730;28;20465;-85
2021/11/22 11:06:56;;;;;;;13.83;12.43;;;8.40;99.90;;;;;;5047424;28;20475;-86
2021/11/22 11:09:27;;;;;;;16.30;12.53;;;8.40;99.90;;;;;;5045904;28;20433;-86
2021/11/22 11:12:01;;;;;;;17.80;12.73;;;8.40;99.90;;;;;;5041509;28;20438;-88
2021/11/22 11:14:29;;;;;;;13.53;11.30;;;8.40;99.90;;;;;;5040187;28;20461;-86
2021/11/22 11:17:10;;;;;;;17.80;13.87;;;8.40;99.90;;;;;;5038181;28;20496;-86
2021/11/22 11:19:37;;;;;;;16.97;11.83;;;8.40;99.90;;;;;;5038568;28;20457;-86
2021/11/22 11:22:06;;;;;;;12.33;11.13;;;8.40;99.90;;;;;;5041298;28;20524;-88
2021/11/22 11:24:33;;;;;;;10.90;9.83;;;8.50;99.90;;;;;;5057149;28;20441;-88
2021/11/22 11:27:00;;;;;;;15.10;10.77;;;8.50;99.90;;;;;;5051837;28;20472;-89
2021/11/22 11:29:26;;;;;;;13.60;8.67;;;8.50;99.90;;;;;;5045803;28;20440;-87
2021/11/22 11:31:54;;;;;;;12.60;9.13;;;8.40;99.90;;;;;;5047336;28;20992;-87
2021/11/22 11:34:21;;;;;;;12.73;10.27;;;8.40;99.90;;;;;;5044998;28;20444;-87
2021/11/22 11:37:20;;;;;;;11.63;10.10;;;8.40;99.90;;;;;;5047566;28;20458;-87
2021/11/22 11:40:22;;;;;;;10.10;8.57;;;8.50;99.90;;;;;;5053222;28;20472;-87
2021/11/22 11:43:37;;;;;;;9.83;8.20;;;8.50;99.90;;;;;;5031493;28;20514;-87
2021/11/22 11:46:11;;;;;;;12.97;8.10;;;8.50;99.90;;;;;;5055891;28;20456;-85
2021/11/22 11:48:58;;;;;;;12.03;7.80;;;8.60;99.90;;;;;;5064582;28;20430;-86
2021/11/22 11:51:33;;;;;;;10.40;9.30;;;8.60;99.90;;;;;;5059225;28;20433;-87
2021/11/22 11:54:11;;;;;;;10.33;7.80;;;8.60;99.90;;;;;;5050839;28;20973;-88
2021/11/22 11:56:42;;;;;;;12.20;7.40;;;8.50;99.90;;;;;;5050773;28;20452;-88
2021/11/22 11:59:14;;;;;;;10.57;7.77;;;8.50;99.90;;;;;;5059792;28;20417;-85
2021/11/22 12:02:04;;;;;;;14.00;7.47;;;8.50;99.90;;;;;;5051996;28;20437;-87
2021/11/22 12:04:52;;;;;;;10.30;7.10;;;8.50;99.90;;;;;;5045522;28;20486;-86
2021/11/22 12:07:25;;;;;;;10.30;7.53;;;8.60;99.90;;;;;;5053390;28;20528;-87
2021/11/22 12:10:10;;;;;;;8.00;6.70;;;8.60;99.90;;;;;;5055977;28;20452;-86
2021/11/22 12:12:38;;;;;;;8.73;7.83;;;8.60;99.90;;;;;;5048692;28;20495;-86
2021/11/22 12:15:06;;;;;;;7.60;5.50;;;8.60;99.90;;;;;;5052813;28;20433;-86
2021/11/22 12:17:53;;;;;;;8.70;7.57;;;8.60;99.90;;;;;;5076808;22;20988;-88
2021/11/22 12:20:46;;;;;;;7.47;6.77;;;8.50;99.90;;;;;;5048125;28;20444;-87
2021/11/22 12:23:15;;;;;;;8.10;6.93;;;8.50;99.90;;;;;;5051564;28;20500;-88
2021/11/22 12:25:49;;;;;;;7.43;6.53;;;8.40;99.90;;;;;;5065032;28;20437;-87
2021/11/22 12:28:57;;;;;;;9.93;6.03;;;8.40;99.90;;;;;;5017222;28;20449;-87
2021/11/22 12:31:31;;;;;;;8.33;6.03;;;8.30;99.90;;;;;;4963285;28;20449;-88
2021/11/22 12:34:05;;;;;;;18.63;7.53;;;8.30;99.90;;;;;;5008859;28;20446;-88
2021/11/22 12:36:42;;;;;;;9.20;7.77;;;8.30;99.90;;;;;;5000709;28;20525;-88
2021/11/22 12:39:14;;;;;;;7.77;5.93;;;8.30;99.90;;;;;;5019739;28;20446;-88
2021/11/22 12:41:48;;;;;;;8.13;7.07;;;8.30;99.90;;;;;;5034881;28;20481;-88
2021/11/22 12:44:17;;;;;;;9.20;6.97;;;8.40;99.90;;;;;;5021164;28;20477;-87
2021/11/22 12:46:53;;;;;;;10.20;6.47;;;8.40;99.90;;;;;;5035562;28;20498;-88
2021/11/22 12:49:44;;;;;;;6.60;6.00;;;8.50;99.90;;;;;;5015722;28;20506;-87